Sandflaesa — LM5781 — position and weather

sailwx.info

Track history (hours):
 
Tides and Currents Weather Stations Pressure Air Temp Water Temp Dewpoint Dewpoint Depression Visibility Wind Speed Wind Dir Waves Ship Positions

Sandflaesa

Last reported at 2014-Jun-22 12:32 UTC. Time now 2014-Aug-01 05:54 UTC.
Position N 67°17' E 014°22'.
Warning: this ship's position is 39 days out of date.

Length 11 m.

Type: Fishing. MMSI: 257304820.

Date/timePositionNaut miles runAvg speedWind from/ knotsBaromVisibWave heightAir tempDewpointWater temp
2014-Jun-22 12:32N 67°17' E 014°22'0 0.0
2014-Jun-22 11:11N 67°17' E 014°22'0 0.0
2014-Jun-22 10:23N 67°17' E 014°22'  
2014-Jun-17 07:32N 67°17' E 014°22'0 0.0
2014-Jun-17 06:32N 67°17' E 014°22'0 0.0
2014-Jun-17 05:32N 67°17' E 014°22'0 0.0
2014-Jun-17 04:32N 67°17' E 014°22'0 0.0
2014-Jun-17 03:32N 67°17' E 014°22'0 0.0
2014-Jun-17 02:32N 67°17' E 014°22'0 0.0
2014-Jun-17 01:32N 67°17' E 014°22'0 0.0
2014-Jun-17 00:32N 67°17' E 014°22'0 0.0
2014-Jun-16 23:32N 67°17' E 014°22'0 0.0
2014-Jun-16 22:32N 67°17' E 014°22'0 0.0
2014-Jun-16 21:32N 67°17' E 014°22'0 0.0
2014-Jun-16 20:32N 67°17' E 014°22'0 0.0
2014-Jun-16 19:32N 67°17' E 014°22'0 0.0
2014-Jun-16 18:32N 67°17' E 014°22'0 0.0
2014-Jun-16 17:32N 67°17' E 014°22'0 0.0
2014-Jun-16 16:32N 67°17' E 014°22'0 0.0
2014-Jun-16 15:32N 67°17' E 014°22'0 0.0
2014-Jun-16 14:26N 67°17' E 014°22'0 0.0
2014-Jun-16 13:32N 67°17' E 014°22'0 0.0
2014-Jun-16 12:32N 67°17' E 014°22'0 0.0
2014-Jun-16 11:32N 67°17' E 014°22'0 0.0
2014-Jun-16 10:32N 67°17' E 014°22'0 0.0
2014-Jun-16 09:32N 67°17' E 014°22'0 0.0
2014-Jun-16 08:32N 67°17' E 014°22'0 0.0
2014-Jun-16 07:29N 67°17' E 014°22'0 0.0
2014-Jun-16 06:32N 67°17' E 014°22'0 0.0
2014-Jun-16 05:32N 67°17' E 014°22'0 0.0
2014-Jun-16 04:32N 67°17' E 014°22'0 0.0
2014-Jun-16 03:32N 67°17' E 014°22'0 0.0
2014-Jun-16 02:32N 67°17' E 014°22'0 0.0
2014-Jun-16 01:32N 67°17' E 014°22'0 0.0
2014-Jun-16 00:32N 67°17' E 014°22'0 0.0
2014-Jun-15 23:32N 67°17' E 014°22'0 0.0
2014-Jun-15 22:32N 67°17' E 014°22'0 0.0
2014-Jun-15 21:32N 67°17' E 014°22'0 0.0
2014-Jun-15 20:32N 67°17' E 014°22'0 0.0
2014-Jun-15 19:29N 67°17' E 014°22'0 0.0
2014-Jun-15 18:32N 67°17' E 014°22'0 0.0
2014-Jun-15 17:32N 67°17' E 014°22'0 0.0
2014-Jun-15 16:32N 67°17' E 014°22'0 0.0
2014-Jun-15 15:32N 67°17' E 014°22'0 0.0
2014-Jun-15 14:32N 67°17' E 014°22'0 0.0
2014-Jun-15 13:31N 67°17' E 014°22'0 0.0
2014-Jun-15 12:31N 67°17' E 014°22'3 3.1
2014-Jun-15 11:33N 67°20' E 014°24'8 0.2
2014-Jun-14 01:21N 67°27' E 014°19'6 0.2
2014-Jun-12 16:25N 67°21' E 014°15'5 5.0
2014-Jun-12 15:23N 67°17' E 014°22'0 0.0
2014-Jun-12 14:32N 67°17' E 014°22'2 2.1
2014-Jun-12 13:33N 67°19' E 014°23'  
Track history (hours):
 
Tides and Currents Weather Stations Pressure Air Temp Water Temp Dewpoint Dewpoint Depression Visibility Wind Speed Wind Dir Waves Ship Positions

Sandflaesa

Last reported at 2014-Jun-22 12:32 UTC. Time now 2014-Aug-01 05:54 UTC.
Position N 67°17' E 014°22'.
Warning: this ship's position is 39 days out of date.

Length 11 m.

Type: Fishing. MMSI: 257304820.

Date/timePositionNaut miles runAvg speedWind from/ knotsBaromVisibWave heightAir tempDewpointWater temp
2014-Jun-22 12:32N 67°17' E 014°22'0 0.0
2014-Jun-22 11:11N 67°17' E 014°22'0 0.0
2014-Jun-22 10:23N 67°17' E 014°22'  
2014-Jun-17 07:32N 67°17' E 014°22'0 0.0
2014-Jun-17 06:32N 67°17' E 014°22'0 0.0
2014-Jun-17 05:32N 67°17' E 014°22'0 0.0
2014-Jun-17 04:32N 67°17' E 014°22'0 0.0
2014-Jun-17 03:32N 67°17' E 014°22'0 0.0
2014-Jun-17 02:32N 67°17' E 014°22'0 0.0
2014-Jun-17 01:32N 67°17' E 014°22'0 0.0
2014-Jun-17 00:32N 67°17' E 014°22'0 0.0
2014-Jun-16 23:32N 67°17' E 014°22'0 0.0
2014-Jun-16 22:32N 67°17' E 014°22'0 0.0
2014-Jun-16 21:32N 67°17' E 014°22'0 0.0
2014-Jun-16 20:32N 67°17' E 014°22'0 0.0
2014-Jun-16 19:32N 67°17' E 014°22'0 0.0
2014-Jun-16 18:32N 67°17' E 014°22'0 0.0
2014-Jun-16 17:32N 67°17' E 014°22'0 0.0
2014-Jun-16 16:32N 67°17' E 014°22'0 0.0
2014-Jun-16 15:32N 67°17' E 014°22'0 0.0
2014-Jun-16 14:26N 67°17' E 014°22'0 0.0
2014-Jun-16 13:32N 67°17' E 014°22'0 0.0
2014-Jun-16 12:32N 67°17' E 014°22'0 0.0
2014-Jun-16 11:32N 67°17' E 014°22'0 0.0
2014-Jun-16 10:32N 67°17' E 014°22'0 0.0
2014-Jun-16 09:32N 67°17' E 014°22'0 0.0
2014-Jun-16 08:32N 67°17' E 014°22'0 0.0
2014-Jun-16 07:29N 67°17' E 014°22'0 0.0
2014-Jun-16 06:32N 67°17' E 014°22'0 0.0
2014-Jun-16 05:32N 67°17' E 014°22'0 0.0
2014-Jun-16 04:32N 67°17' E 014°22'0 0.0
2014-Jun-16 03:32N 67°17' E 014°22'0 0.0
2014-Jun-16 02:32N 67°17' E 014°22'0 0.0
2014-Jun-16 01:32N 67°17' E 014°22'0 0.0
2014-Jun-16 00:32N 67°17' E 014°22'0 0.0
2014-Jun-15 23:32N 67°17' E 014°22'0 0.0
2014-Jun-15 22:32N 67°17' E 014°22'0 0.0
2014-Jun-15 21:32N 67°17' E 014°22'0 0.0
2014-Jun-15 20:32N 67°17' E 014°22'0 0.0
2014-Jun-15 19:29N 67°17' E 014°22'0 0.0
2014-Jun-15 18:32N 67°17' E 014°22'0 0.0
2014-Jun-15 17:32N 67°17' E 014°22'0 0.0
2014-Jun-15 16:32N 67°17' E 014°22'0 0.0
2014-Jun-15 15:32N 67°17' E 014°22'0 0.0
2014-Jun-15 14:32N 67°17' E 014°22'0 0.0
2014-Jun-15 13:31N 67°17' E 014°22'0 0.0
2014-Jun-15 12:31N 67°17' E 014°22'3 3.1
2014-Jun-15 11:33N 67°20' E 014°24'8 0.2
2014-Jun-14 01:21N 67°27' E 014°19'6 0.2
2014-Jun-12 16:25N 67°21' E 014°15'5 5.0
2014-Jun-12 15:23N 67°17' E 014°22'0 0.0
2014-Jun-12 14:32N 67°17' E 014°22'2 2.1
2014-Jun-12 13:33N 67°19' E 014°23'  

Dump ship's entire track history